Terminal Aerodrome Forecast
Issued by NWS Shreveport, LA

Home | Current Version | Previous Version | Text Only | Print | Product List | Glossary On
Versions: 1 2 3 4 5 6 7 8 9 10 11
000
FTUS44 KSHV 270500 RRA
TAFGGG
TAF
KGGG 270552Z 2706/2806 15007KT 6SM BR VCSH OVC008
      TEMPO 2706/2710 3SM -SHRA BR OVC004
     FM271000 VRB04KT 2SM BR VCSH OVC004
      TEMPO 2710/2713 1 1/2SM -TSRA BR OVC004CB
     FM271300 09004KT 3SM -SHRA BR OVC003
     FM271500 33010KT 3SM BR OVC015
     FM271800 33012KT 4SM BR OVC007
     FM272200 35012G14KT P6SM BKN008 OVC015
     FM280100 35013G18KT P6SM VCTS BKN008CB OVC015
     FM280300 35015G21KT P6SM OVC015=

USA.gov is the U.S. government's official web portal to all federal, state and local government web resources and services.